sensor_id;sensor_type;location;lat;lon;timestamp;temperature;humidity
10384;DHT22;5238;43.508;4.980;2023-05-07T00:01:33;18.80;91.30
10384;DHT22;5238;43.508;4.980;2023-05-07T00:04:02;18.80;91.30
10384;DHT22;5238;43.508;4.980;2023-05-07T00:06:43;18.80;91.30
10384;DHT22;5238;43.508;4.980;2023-05-07T00:09:18;18.80;91.30
10384;DHT22;5238;43.508;4.980;2023-05-07T00:11:49;18.70;91.30
10384;DHT22;5238;43.508;4.980;2023-05-07T00:14:19;18.70;91.30
10384;DHT22;5238;43.508;4.980;2023-05-07T00:16:48;18.70;91.30
10384;DHT22;5238;43.508;4.980;2023-05-07T00:19:15;18.70;91.30
10384;DHT22;5238;43.508;4.980;2023-05-07T00:21:50;18.60;91.30
10384;DHT22;5238;43.508;4.980;2023-05-07T00:24:19;18.60;91.30
10384;DHT22;5238;43.508;4.980;2023-05-07T00:26:47;18.60;91.30
10384;DHT22;5238;43.508;4.980;2023-05-07T00:29:15;18.60;91.30
10384;DHT22;5238;43.508;4.980;2023-05-07T00:31:49;18.60;91.30
10384;DHT22;5238;43.508;4.980;2023-05-07T00:34:20;18.50;91.30
10384;DHT22;5238;43.508;4.980;2023-05-07T00:36:50;18.50;91.30
10384;DHT22;5238;43.508;4.980;2023-05-07T00:39:20;18.50;91.30
10384;DHT22;5238;43.508;4.980;2023-05-07T00:41:47;18.40;91.30
10384;DHT22;5238;43.508;4.980;2023-05-07T00:44:17;18.40;91.30
10384;DHT22;5238;43.508;4.980;2023-05-07T00:46:48;18.40;91.30
10384;DHT22;5238;43.508;4.980;2023-05-07T00:49:34;18.40;91.30
10384;DHT22;5238;43.508;4.980;2023-05-07T00:52:03;18.40;91.30
10384;DHT22;5238;43.508;4.980;2023-05-07T00:54:44;18.40;91.30
10384;DHT22;5238;43.508;4.980;2023-05-07T00:57:21;18.40;91.30
10384;DHT22;5238;43.508;4.980;2023-05-07T01:00:03;18.40;91.30
10384;DHT22;5238;43.508;4.980;2023-05-07T01:02:49;18.40;91.30
10384;DHT22;5238;43.508;4.980;2023-05-07T01:05:17;18.30;91.30
10384;DHT22;5238;43.508;4.980;2023-05-07T01:07:54;18.30;91.30
10384;DHT22;5238;43.508;4.980;2023-05-07T01:10:41;18.30;91.30
10384;DHT22;5238;43.508;4.980;2023-05-07T01:13:09;18.20;91.30
10384;DHT22;5238;43.508;4.980;2023-05-07T01:15:43;18.20;91.30
10384;DHT22;5238;43.508;4.980;2023-05-07T01:18:19;18.20;91.30
10384;DHT22;5238;43.508;4.980;2023-05-07T01:20:47;18.20;91.30
10384;DHT22;5238;43.508;4.980;2023-05-07T01:23:17;18.20;91.30
10384;DHT22;5238;43.508;4.980;2023-05-07T01:25:52;18.20;91.30
10384;DHT22;5238;43.508;4.980;2023-05-07T01:28:19;18.10;91.30
10384;DHT22;5238;43.508;4.980;2023-05-07T01:31:00;18.10;91.30
10384;DHT22;5238;43.508;4.980;2023-05-07T01:33:34;18.10;91.30
10384;DHT22;5238;43.508;4.980;2023-05-07T01:36:03;18.10;91.30
10384;DHT22;5238;43.508;4.980;2023-05-07T01:38:46;18.10;91.30
10384;DHT22;5238;43.508;4.980;2023-05-07T01:41:15;18.20;91.30
10384;DHT22;5238;43.508;4.980;2023-05-07T01:43:50;18.20;91.30
10384;DHT22;5238;43.508;4.980;2023-05-07T01:46:20;18.30;91.30
10384;DHT22;5238;43.508;4.980;2023-05-07T01:48:50;18.30;91.30
10384;DHT22;5238;43.508;4.980;2023-05-07T01:51:19;18.30;91.30
10384;DHT22;5238;43.508;4.980;2023-05-07T01:54:06;18.40;91.30
10384;DHT22;5238;43.508;4.980;2023-05-07T01:56:34;18.40;91.30
10384;DHT22;5238;43.508;4.980;2023-05-07T01:59:15;18.40;91.30
10384;DHT22;5238;43.508;4.980;2023-05-07T02:01:46;18.40;91.30
10384;DHT22;5238;43.508;4.980;2023-05-07T02:04:17;18.40;91.30
10384;DHT22;5238;43.508;4.980;2023-05-07T02:06:45;18.50;91.30
10384;DHT22;5238;43.508;4.980;2023-05-07T02:09:23;18.50;91.30
10384;DHT22;5238;43.508;4.980;2023-05-07T02:12:05;18.50;91.30
10384;DHT22;5238;43.508;4.980;2023-05-07T02:14:32;18.50;91.30
10384;DHT22;5238;43.508;4.980;2023-05-07T02:17:02;18.50;91.30
10384;DHT22;5238;43.508;4.980;2023-05-07T02:19:31;18.50;91.30
10384;DHT22;5238;43.508;4.980;2023-05-07T02:21:59;18.50;91.30
10384;DHT22;5238;43.508;4.980;2023-05-07T02:24:31;18.50;91.30
10384;DHT22;5238;43.508;4.980;2023-05-07T02:27:01;18.50;91.30
10384;DHT22;5238;43.508;4.980;2023-05-07T02:29:29;18.50;91.30
10384;DHT22;5238;43.508;4.980;2023-05-07T02:31:57;18.50;91.30
10384;DHT22;5238;43.508;4.980;2023-05-07T02:34:38;18.40;91.30
10384;DHT22;5238;43.508;4.980;2023-05-07T02:37:19;18.40;91.30
10384;DHT22;5238;43.508;4.980;2023-05-07T02:40:19;18.40;91.30
10384;DHT22;5238;43.508;4.980;2023-05-07T02:43:01;18.30;91.30
10384;DHT22;5238;43.508;4.980;2023-05-07T02:45:29;18.30;91.30
10384;DHT22;5238;43.508;4.980;2023-05-07T02:48:05;18.30;91.30
10384;DHT22;5238;43.508;4.980;2023-05-07T02:50:32;18.30;91.30
10384;DHT22;5238;43.508;4.980;2023-05-07T02:53:15;18.30;91.30
10384;DHT22;5238;43.508;4.980;2023-05-07T02:55:46;18.30;91.30
10384;DHT22;5238;43.508;4.980;2023-05-07T02:58:16;18.30;91.30
10384;DHT22;5238;43.508;4.980;2023-05-07T03:00:47;18.30;91.30
10384;DHT22;5238;43.508;4.980;2023-05-07T03:03:22;18.30;91.30
10384;DHT22;5238;43.508;4.980;2023-05-07T03:05:52;18.30;91.30
10384;DHT22;5238;43.508;4.980;2023-05-07T03:08:22;18.30;91.30
10384;DHT22;5238;43.508;4.980;2023-05-07T03:10:53;18.20;91.30
10384;DHT22;5238;43.508;4.980;2023-05-07T03:13:39;18.20;91.30
10384;DHT22;5238;43.508;4.980;2023-05-07T03:16:07;18.20;91.30
10384;DHT22;5238;43.508;4.980;2023-05-07T03:18:35;18.20;91.30
10384;DHT22;5238;43.508;4.980;2023-05-07T03:21:10;18.20;91.30
10384;DHT22;5238;43.508;4.980;2023-05-07T03:23:39;18.20;91.30
10384;DHT22;5238;43.508;4.980;2023-05-07T03:26:10;18.20;91.30
10384;DHT22;5238;43.508;4.980;2023-05-07T03:28:51;18.20;91.30
10384;DHT22;5238;43.508;4.980;2023-05-07T03:31:29;18.10;91.30
10384;DHT22;5238;43.508;4.980;2023-05-07T03:33:57;18.10;91.30
10384;DHT22;5238;43.508;4.980;2023-05-07T03:36:26;18.10;91.30
10384;DHT22;5238;43.508;4.980;2023-05-07T03:38:53;18.10;91.30
10384;DHT22;5238;43.508;4.980;2023-05-07T03:41:25;18.10;91.30
10384;DHT22;5238;43.508;4.980;2023-05-07T03:43:53;18.10;91.30
10384;DHT22;5238;43.508;4.980;2023-05-07T03:46:22;18.00;91.30
10384;DHT22;5238;43.508;4.980;2023-05-07T03:48:51;18.00;91.30
10384;DHT22;5238;43.508;4.980;2023-05-07T03:51:20;17.90;91.30
10384;DHT22;5238;43.508;4.980;2023-05-07T03:54:01;17.90;91.30
10384;DHT22;5238;43.508;4.980;2023-05-07T03:56:48;17.80;91.30
10384;DHT22;5238;43.508;4.980;2023-05-07T03:59:18;17.80;91.30
10384;DHT22;5238;43.508;4.980;2023-05-07T04:01:53;17.70;91.30
10384;DHT22;5238;43.508;4.980;2023-05-07T04:04:34;17.70;91.30
10384;DHT22;5238;43.508;4.980;2023-05-07T04:07:07;17.60;91.30
10384;DHT22;5238;43.508;4.980;2023-05-07T04:09:52;17.60;91.30
10384;DHT22;5238;43.508;4.980;2023-05-07T04:12:21;17.60;91.30
10384;DHT22;5238;43.508;4.980;2023-05-07T04:14:52;17.60;91.30
10384;DHT22;5238;43.508;4.980;2023-05-07T04:17:42;17.60;91.30
10384;DHT22;5238;43.508;4.980;2023-05-07T04:20:12;17.60;91.30
10384;DHT22;5238;43.508;4.980;2023-05-07T04:22:41;17.60;91.30
10384;DHT22;5238;43.508;4.980;2023-05-07T04:25:16;17.60;91.30
10384;DHT22;5238;43.508;4.980;2023-05-07T04:27:46;17.60;91.30
10384;DHT22;5238;43.508;4.980;2023-05-07T04:30:29;17.60;91.30
10384;DHT22;5238;43.508;4.980;2023-05-07T04:32:57;17.70;91.30
10384;DHT22;5238;43.508;4.980;2023-05-07T04:35:28;17.70;91.30
10384;DHT22;5238;43.508;4.980;2023-05-07T04:38:13;17.70;91.30
10384;DHT22;5238;43.508;4.980;2023-05-07T04:40:40;17.70;91.30
10384;DHT22;5238;43.508;4.980;2023-05-07T04:43:22;17.60;91.30
10384;DHT22;5238;43.508;4.980;2023-05-07T04:45:55;17.60;91.30
10384;DHT22;5238;43.508;4.980;2023-05-07T04:48:22;17.60;91.30
10384;DHT22;5238;43.508;4.980;2023-05-07T04:51:03;17.60;91.30
10384;DHT22;5238;43.508;4.980;2023-05-07T04:53:32;17.60;91.30
10384;DHT22;5238;43.508;4.980;2023-05-07T04:56:04;17.60;91.30
10384;DHT22;5238;43.508;4.980;2023-05-07T04:58:36;17.60;91.30
10384;DHT22;5238;43.508;4.980;2023-05-07T05:01:13;17.60;91.30
10384;DHT22;5238;43.508;4.980;2023-05-07T05:03:44;17.60;91.30
10384;DHT22;5238;43.508;4.980;2023-05-07T05:06:15;17.60;91.30
10384;DHT22;5238;43.508;4.980;2023-05-07T05:08:45;17.60;91.30
10384;DHT22;5238;43.508;4.980;2023-05-07T05:11:27;17.60;91.30
10384;DHT22;5238;43.508;4.980;2023-05-07T05:14:12;17.60;91.30
10384;DHT22;5238;43.508;4.980;2023-05-07T05:16:47;17.70;91.30
10384;DHT22;5238;43.508;4.980;2023-05-07T05:19:28;17.70;91.30
10384;DHT22;5238;43.508;4.980;2023-05-07T05:22:11;17.80;91.30
10384;DHT22;5238;43.508;4.980;2023-05-07T05:24:52;17.90;91.30
10384;DHT22;5238;43.508;4.980;2023-05-07T05:27:40;17.90;91.30
10384;DHT22;5238;43.508;4.980;2023-05-07T05:30:29;18.00;91.30
10384;DHT22;5238;43.508;4.980;2023-05-07T05:33:11;18.10;91.30
10384;DHT22;5238;43.508;4.980;2023-05-07T05:35:40;18.10;91.30
10384;DHT22;5238;43.508;4.980;2023-05-07T05:38:09;18.20;91.30
10384;DHT22;5238;43.508;4.980;2023-05-07T05:40:40;18.20;91.30
10384;DHT22;5238;43.508;4.980;2023-05-07T05:43:13;18.20;91.30
10384;DHT22;5238;43.508;4.980;2023-05-07T05:45:44;18.30;91.30
10384;DHT22;5238;43.508;4.980;2023-05-07T05:48:43;18.30;91.30
10384;DHT22;5238;43.508;4.980;2023-05-07T05:51:14;18.30;91.30
10384;DHT22;5238;43.508;4.980;2023-05-07T05:53:41;18.30;91.30
10384;DHT22;5238;43.508;4.980;2023-05-07T05:56:16;18.30;91.30
10384;DHT22;5238;43.508;4.980;2023-05-07T05:58:44;18.30;91.30
10384;DHT22;5238;43.508;4.980;2023-05-07T06:01:18;18.30;91.30
10384;DHT22;5238;43.508;4.980;2023-05-07T06:03:59;18.30;91.30
10384;DHT22;5238;43.508;4.980;2023-05-07T06:06:32;18.30;91.30
10384;DHT22;5238;43.508;4.980;2023-05-07T06:09:03;18.40;91.30
10384;DHT22;5238;43.508;4.980;2023-05-07T06:11:44;18.40;91.30
10384;DHT22;5238;43.508;4.980;2023-05-07T06:14:28;18.40;91.30
10384;DHT22;5238;43.508;4.980;2023-05-07T06:17:10;18.40;91.30
10384;DHT22;5238;43.508;4.980;2023-05-07T06:19:38;18.50;91.30
10384;DHT22;5238;43.508;4.980;2023-05-07T06:22:14;18.50;91.30
10384;DHT22;5238;43.508;4.980;2023-05-07T06:24:57;18.60;91.30
10384;DHT22;5238;43.508;4.980;2023-05-07T06:27:29;18.70;91.30
10384;DHT22;5238;43.508;4.980;2023-05-07T06:30:12;18.80;91.30
10384;DHT22;5238;43.508;4.980;2023-05-07T06:32:55;18.90;91.30
10384;DHT22;5238;43.508;4.980;2023-05-07T06:35:36;19.10;91.30
10384;DHT22;5238;43.508;4.980;2023-05-07T06:38:17;19.30;91.30
10384;DHT22;5238;43.508;4.980;2023-05-07T06:40:49;19.60;91.30
10384;DHT22;5238;43.508;4.980;2023-05-07T06:43:22;19.70;91.30
10384;DHT22;5238;43.508;4.980;2023-05-07T06:46:11;19.90;91.30
10384;DHT22;5238;43.508;4.980;2023-05-07T06:48:56;20.30;91.30
10384;DHT22;5238;43.508;4.980;2023-05-07T06:51:24;20.70;91.30
10384;DHT22;5238;43.508;4.980;2023-05-07T06:53:54;21.00;91.30
10384;DHT22;5238;43.508;4.980;2023-05-07T06:56:21;21.40;91.30
10384;DHT22;5238;43.508;4.980;2023-05-07T06:58:49;21.70;91.30
10384;DHT22;5238;43.508;4.980;2023-05-07T07:01:16;22.00;91.30
10384;DHT22;5238;43.508;4.980;2023-05-07T07:03:46;22.40;91.30
10384;DHT22;5238;43.508;4.980;2023-05-07T07:06:14;22.70;91.30
10384;DHT22;5238;43.508;4.980;2023-05-07T07:08:42;22.90;91.30
10384;DHT22;5238;43.508;4.980;2023-05-07T07:11:10;23.20;91.30
10384;DHT22;5238;43.508;4.980;2023-05-07T07:13:37;23.50;91.30
10384;DHT22;5238;43.508;4.980;2023-05-07T07:16:05;23.80;91.30
10384;DHT22;5238;43.508;4.980;2023-05-07T07:18:32;24.10;91.30
10384;DHT22;5238;43.508;4.980;2023-05-07T07:21:01;24.30;91.30
10384;DHT22;5238;43.508;4.980;2023-05-07T07:23:30;24.50;91.30
10384;DHT22;5238;43.508;4.980;2023-05-07T07:26:06;24.70;91.30
10384;DHT22;5238;43.508;4.980;2023-05-07T07:28:34;25.10;91.30
10384;DHT22;5238;43.508;4.980;2023-05-07T07:31:01;25.40;91.30
10384;DHT22;5238;43.508;4.980;2023-05-07T07:33:37;25.70;91.30
10384;DHT22;5238;43.508;4.980;2023-05-07T07:36:07;25.90;91.30
10384;DHT22;5238;43.508;4.980;2023-05-07T07:38:40;26.20;91.30
10384;DHT22;5238;43.508;4.980;2023-05-07T07:41:12;26.60;91.30
10384;DHT22;5238;43.508;4.980;2023-05-07T07:43:41;26.80;91.30
10384;DHT22;5238;43.508;4.980;2023-05-07T07:46:22;26.80;91.30
10384;DHT22;5238;43.508;4.980;2023-05-07T07:49:07;27.10;91.30
10384;DHT22;5238;43.508;4.980;2023-05-07T07:52:03;27.60;91.30
10384;DHT22;5238;43.508;4.980;2023-05-07T07:54:46;28.10;91.30
10384;DHT22;5238;43.508;4.980;2023-05-07T07:57:34;28.20;91.30
10384;DHT22;5238;43.508;4.980;2023-05-07T08:00:02;28.40;91.30
10384;DHT22;5238;43.508;4.980;2023-05-07T08:02:43;28.70;91.30
10384;DHT22;5238;43.508;4.980;2023-05-07T08:05:24;29.00;91.30
10384;DHT22;5238;43.508;4.980;2023-05-07T08:07:57;29.20;91.30
10384;DHT22;5238;43.508;4.980;2023-05-07T08:10:28;29.40;91.30
10384;DHT22;5238;43.508;4.980;2023-05-07T08:13:00;29.60;91.30
10384;DHT22;5238;43.508;4.980;2023-05-07T08:15:42;29.90;91.30
10384;DHT22;5238;43.508;4.980;2023-05-07T08:18:24;30.20;91.30
10384;DHT22;5238;43.508;4.980;2023-05-07T08:21:05;30.50;91.30
10384;DHT22;5238;43.508;4.980;2023-05-07T08:23:47;30.70;91.30
10384;DHT22;5238;43.508;4.980;2023-05-07T08:26:23;31.10;91.30
10384;DHT22;5238;43.508;4.980;2023-05-07T08:29:03;31.40;91.30
10384;DHT22;5238;43.508;4.980;2023-05-07T08:31:32;31.70;91.30
10384;DHT22;5238;43.508;4.980;2023-05-07T08:34:13;31.80;91.30
10384;DHT22;5238;43.508;4.980;2023-05-07T08:36:54;31.70;91.30
10384;DHT22;5238;43.508;4.980;2023-05-07T08:39:35;31.80;91.30
10384;DHT22;5238;43.508;4.980;2023-05-07T08:42:40;32.10;91.30
10384;DHT22;5238;43.508;4.980;2023-05-07T08:45:09;32.20;91.30
10384;DHT22;5238;43.508;4.980;2023-05-07T08:47:47;32.20;91.30
10384;DHT22;5238;43.508;4.980;2023-05-07T08:50:24;32.10;91.30
10384;DHT22;5238;43.508;4.980;2023-05-07T08:52:58;32.00;91.30
10384;DHT22;5238;43.508;4.980;2023-05-07T08:55:30;32.00;91.30
10384;DHT22;5238;43.508;4.980;2023-05-07T08:58:07;31.90;91.30
10384;DHT22;5238;43.508;4.980;2023-05-07T09:00:36;31.80;91.30
10384;DHT22;5238;43.508;4.980;2023-05-07T09:03:11;31.70;91.30
10384;DHT22;5238;43.508;4.980;2023-05-07T09:05:45;31.60;91.30
10384;DHT22;5238;43.508;4.980;2023-05-07T09:08:15;31.50;91.30
10384;DHT22;5238;43.508;4.980;2023-05-07T09:10:48;31.40;91.30
10384;DHT22;5238;43.508;4.980;2023-05-07T09:13:32;31.40;91.30
10384;DHT22;5238;43.508;4.980;2023-05-07T09:16:14;31.70;91.30
10384;DHT22;5238;43.508;4.980;2023-05-07T09:18:42;32.00;91.30
10384;DHT22;5238;43.508;4.980;2023-05-07T09:21:16;32.20;91.30
10384;DHT22;5238;43.508;4.980;2023-05-07T09:23:50;32.50;91.30
10384;DHT22;5238;43.508;4.980;2023-05-07T09:26:36;32.70;91.30
10384;DHT22;5238;43.508;4.980;2023-05-07T09:29:11;33.00;91.30
10384;DHT22;5238;43.508;4.980;2023-05-07T09:31:42;33.20;91.30
10384;DHT22;5238;43.508;4.980;2023-05-07T09:34:23;33.20;91.30
10384;DHT22;5238;43.508;4.980;2023-05-07T09:36:51;33.30;91.30
10384;DHT22;5238;43.508;4.980;2023-05-07T09:39:42;33.60;91.30
10384;DHT22;5238;43.508;4.980;2023-05-07T09:42:10;33.90;91.30
10384;DHT22;5238;43.508;4.980;2023-05-07T09:44:43;34.00;91.30
10384;DHT22;5238;43.508;4.980;2023-05-07T09:47:24;34.10;91.30
10384;DHT22;5238;43.508;4.980;2023-05-07T09:49:56;33.90;91.30
10384;DHT22;5238;43.508;4.980;2023-05-07T09:52:28;33.90;91.30
10384;DHT22;5238;43.508;4.980;2023-05-07T09:55:00;33.80;91.30
10384;DHT22;5238;43.508;4.980;2023-05-07T09:57:29;33.80;91.30
10384;DHT22;5238;43.508;4.980;2023-05-07T10:00:00;33.80;91.30
10384;DHT22;5238;43.508;4.980;2023-05-07T10:02:33;33.80;91.30
10384;DHT22;5238;43.508;4.980;2023-05-07T10:05:14;33.80;91.30
10384;DHT22;5238;43.508;4.980;2023-05-07T10:07:42;33.90;91.30
10384;DHT22;5238;43.508;4.980;2023-05-07T10:10:32;34.00;91.30
10384;DHT22;5238;43.508;4.980;2023-05-07T10:13:01;34.10;91.30
10384;DHT22;5238;43.508;4.980;2023-05-07T10:15:44;34.20;91.30
10384;DHT22;5238;43.508;4.980;2023-05-07T10:18:27;34.30;91.30
10384;DHT22;5238;43.508;4.980;2023-05-07T10:21:04;34.30;91.30
10384;DHT22;5238;43.508;4.980;2023-05-07T10:23:39;34.20;91.30
10384;DHT22;5238;43.508;4.980;2023-05-07T10:26:15;34.20;91.30
10384;DHT22;5238;43.508;4.980;2023-05-07T10:29:02;34.10;91.30
10384;DHT22;5238;43.508;4.980;2023-05-07T10:34:45;34.10;91.30
10384;DHT22;5238;43.508;4.980;2023-05-07T10:37:21;34.10;91.30
10384;DHT22;5238;43.508;4.980;2023-05-07T10:40:03;34.20;91.30
10384;DHT22;5238;43.508;4.980;2023-05-07T10:42:38;34.40;91.30
10384;DHT22;5238;43.508;4.980;2023-05-07T10:45:15;34.40;91.30
10384;DHT22;5238;43.508;4.980;2023-05-07T10:48:07;34.60;91.30
10384;DHT22;5238;43.508;4.980;2023-05-07T10:50:46;34.60;91.30
10384;DHT22;5238;43.508;4.980;2023-05-07T10:53:25;34.80;91.30
10384;DHT22;5238;43.508;4.980;2023-05-07T10:56:24;34.90;91.30
10384;DHT22;5238;43.508;4.980;2023-05-07T10:59:32;34.90;91.30
10384;DHT22;5238;43.508;4.980;2023-05-07T11:02:04;35.00;91.30
10384;DHT22;5238;43.508;4.980;2023-05-07T11:04:45;34.90;91.30
10384;DHT22;5238;43.508;4.980;2023-05-07T11:07:46;35.00;91.30
10384;DHT22;5238;43.508;4.980;2023-05-07T11:10:20;35.00;91.30
10384;DHT22;5238;43.508;4.980;2023-05-07T11:13:02;35.00;91.30
10384;DHT22;5238;43.508;4.980;2023-05-07T11:15:47;34.90;91.30
10384;DHT22;5238;43.508;4.980;2023-05-07T11:18:15;34.90;91.30
10384;DHT22;5238;43.508;4.980;2023-05-07T11:20:54;34.80;91.30
10384;DHT22;5238;43.508;4.980;2023-05-07T11:26:47;34.60;91.30
10384;DHT22;5238;43.508;4.980;2023-05-07T11:29:16;34.10;91.30
10384;DHT22;5238;43.508;4.980;2023-05-07T11:31:48;33.90;91.30
10384;DHT22;5238;43.508;4.980;2023-05-07T11:34:21;33.80;91.30
10384;DHT22;5238;43.508;4.980;2023-05-07T11:36:48;33.60;91.30
10384;DHT22;5238;43.508;4.980;2023-05-07T11:39:26;33.50;91.30
10384;DHT22;5238;43.508;4.980;2023-05-07T11:42:04;33.30;91.30
10384;DHT22;5238;43.508;4.980;2023-05-07T11:44:44;33.00;91.30
10384;DHT22;5238;43.508;4.980;2023-05-07T11:47:17;32.90;91.30
10384;DHT22;5238;43.508;4.980;2023-05-07T11:49:57;32.50;91.30
10384;DHT22;5238;43.508;4.980;2023-05-07T11:52:29;32.30;91.30
10384;DHT22;5238;43.508;4.980;2023-05-07T11:55:01;32.00;91.30
10384;DHT22;5238;43.508;4.980;2023-05-07T11:57:37;31.90;91.30
10384;DHT22;5238;43.508;4.980;2023-05-07T12:00:16;31.80;91.30
10384;DHT22;5238;43.508;4.980;2023-05-07T12:02:47;31.60;91.30
10384;DHT22;5238;43.508;4.980;2023-05-07T12:05:18;31.50;91.30
10384;DHT22;5238;43.508;4.980;2023-05-07T12:07:45;31.40;91.30
10384;DHT22;5238;43.508;4.980;2023-05-07T12:10:12;31.20;91.30
10384;DHT22;5238;43.508;4.980;2023-05-07T12:12:42;31.10;91.30
10384;DHT22;5238;43.508;4.980;2023-05-07T12:15:16;31.00;91.30
10384;DHT22;5238;43.508;4.980;2023-05-07T12:17:51;30.90;91.30
10384;DHT22;5238;43.508;4.980;2023-05-07T12:20:34;30.70;91.30
10384;DHT22;5238;43.508;4.980;2023-05-07T12:23:07;30.60;91.30
10384;DHT22;5238;43.508;4.980;2023-05-07T12:25:37;30.50;91.30
10384;DHT22;5238;43.508;4.980;2023-05-07T12:28:28;30.50;91.30
10384;DHT22;5238;43.508;4.980;2023-05-07T12:30:59;30.40;91.30
10384;DHT22;5238;43.508;4.980;2023-05-07T12:33:32;30.30;91.30
10384;DHT22;5238;43.508;4.980;2023-05-07T12:36:13;30.30;91.30
10384;DHT22;5238;43.508;4.980;2023-05-07T12:38:49;30.20;91.30
10384;DHT22;5238;43.508;4.980;2023-05-07T12:41:30;30.10;91.30
10384;DHT22;5238;43.508;4.980;2023-05-07T12:44:32;30.00;91.30
10384;DHT22;5238;43.508;4.980;2023-05-07T12:47:15;30.10;91.30
10384;DHT22;5238;43.508;4.980;2023-05-07T12:49:50;30.00;91.30
10384;DHT22;5238;43.508;4.980;2023-05-07T12:52:31;29.90;91.30
10384;DHT22;5238;43.508;4.980;2023-05-07T12:55:16;29.70;91.30
10384;DHT22;5238;43.508;4.980;2023-05-07T12:58:00;29.70;91.30
10384;DHT22;5238;43.508;4.980;2023-05-07T13:00:37;29.70;91.30
10384;DHT22;5238;43.508;4.980;2023-05-07T13:03:04;29.70;91.30
10384;DHT22;5238;43.508;4.980;2023-05-07T13:05:32;29.70;91.30
10384;DHT22;5238;43.508;4.980;2023-05-07T13:07:59;29.70;91.30
10384;DHT22;5238;43.508;4.980;2023-05-07T13:10:31;29.70;91.30
10384;DHT22;5238;43.508;4.980;2023-05-07T13:13:08;29.70;91.30
10384;DHT22;5238;43.508;4.980;2023-05-07T13:15:42;29.60;91.30
10384;DHT22;5238;43.508;4.980;2023-05-07T13:18:13;29.50;91.30
10384;DHT22;5238;43.508;4.980;2023-05-07T13:20:40;29.40;91.30
10384;DHT22;5238;43.508;4.980;2023-05-07T13:23:07;29.30;91.30
10384;DHT22;5238;43.508;4.980;2023-05-07T13:25:36;29.20;91.30
10384;DHT22;5238;43.508;4.980;2023-05-07T13:28:18;29.20;91.30
10384;DHT22;5238;43.508;4.980;2023-05-07T13:30:47;29.10;91.30
10384;DHT22;5238;43.508;4.980;2023-05-07T13:33:15;29.10;91.30
10384;DHT22;5238;43.508;4.980;2023-05-07T13:35:42;29.20;91.30
10384;DHT22;5238;43.508;4.980;2023-05-07T13:38:09;29.20;91.30
10384;DHT22;5238;43.508;4.980;2023-05-07T13:40:36;29.30;91.30
10384;DHT22;5238;43.508;4.980;2023-05-07T13:43:05;29.40;91.30
10384;DHT22;5238;43.508;4.980;2023-05-07T13:45:34;29.40;91.30
10384;DHT22;5238;43.508;4.980;2023-05-07T13:48:03;29.40;91.30
10384;DHT22;5238;43.508;4.980;2023-05-07T13:50:40;29.50;91.30
10384;DHT22;5238;43.508;4.980;2023-05-07T13:53:11;29.50;91.30
10384;DHT22;5238;43.508;4.980;2023-05-07T13:55:44;29.40;91.30
10384;DHT22;5238;43.508;4.980;2023-05-07T13:58:27;29.50;91.30
10384;DHT22;5238;43.508;4.980;2023-05-07T14:00:56;29.50;91.30
10384;DHT22;5238;43.508;4.980;2023-05-07T14:03:34;29.40;91.30
10384;DHT22;5238;43.508;4.980;2023-05-07T14:06:03;29.40;91.30
10384;DHT22;5238;43.508;4.980;2023-05-07T14:08:39;29.40;91.30
10384;DHT22;5238;43.508;4.980;2023-05-07T14:11:27;29.40;91.30
10384;DHT22;5238;43.508;4.980;2023-05-07T14:14:08;29.50;91.30
10384;DHT22;5238;43.508;4.980;2023-05-07T14:16:40;29.50;91.30
10384;DHT22;5238;43.508;4.980;2023-05-07T14:19:23;29.60;91.30
10384;DHT22;5238;43.508;4.980;2023-05-07T14:21:53;29.70;91.30
10384;DHT22;5238;43.508;4.980;2023-05-07T14:24:34;29.70;91.30
10384;DHT22;5238;43.508;4.980;2023-05-07T14:27:05;29.70;91.30
10384;DHT22;5238;43.508;4.980;2023-05-07T14:29:50;29.70;91.30
10384;DHT22;5238;43.508;4.980;2023-05-07T14:32:22;29.70;91.30
10384;DHT22;5238;43.508;4.980;2023-05-07T14:35:10;29.70;91.30
10384;DHT22;5238;43.508;4.980;2023-05-07T14:37:39;29.70;91.30
10384;DHT22;5238;43.508;4.980;2023-05-07T14:40:21;29.70;91.30
10384;DHT22;5238;43.508;4.980;2023-05-07T14:42:52;29.70;91.30
10384;DHT22;5238;43.508;4.980;2023-05-07T14:45:31;29.60;91.30
10384;DHT22;5238;43.508;4.980;2023-05-07T14:47:58;29.60;91.30
10384;DHT22;5238;43.508;4.980;2023-05-07T14:50:56;29.60;91.30
10384;DHT22;5238;43.508;4.980;2023-05-07T14:53:23;29.70;91.30
10384;DHT22;5238;43.508;4.980;2023-05-07T14:55:59;29.70;91.30
10384;DHT22;5238;43.508;4.980;2023-05-07T14:58:31;29.80;91.30
10384;DHT22;5238;43.508;4.980;2023-05-07T15:01:07;29.80;91.30
10384;DHT22;5238;43.508;4.980;2023-05-07T15:03:36;29.80;91.30
10384;DHT22;5238;43.508;4.980;2023-05-07T15:06:29;29.80;91.30
10384;DHT22;5238;43.508;4.980;2023-05-07T15:08:57;29.80;91.30
10384;DHT22;5238;43.508;4.980;2023-05-07T15:11:25;29.80;91.30
10384;DHT22;5238;43.508;4.980;2023-05-07T15:14:09;29.70;91.30
10384;DHT22;5238;43.508;4.980;2023-05-07T15:16:36;29.60;91.30
10384;DHT22;5238;43.508;4.980;2023-05-07T15:19:04;29.50;91.30
10384;DHT22;5238;43.508;4.980;2023-05-07T15:21:32;29.40;91.30
10384;DHT22;5238;43.508;4.980;2023-05-07T15:24:02;29.30;91.30
10384;DHT22;5238;43.508;4.980;2023-05-07T15:26:32;29.20;91.30
10384;DHT22;5238;43.508;4.980;2023-05-07T15:29:06;29.20;91.30
10384;DHT22;5238;43.508;4.980;2023-05-07T15:31:41;29.20;91.30
10384;DHT22;5238;43.508;4.980;2023-05-07T15:34:15;29.00;91.30
10384;DHT22;5238;43.508;4.980;2023-05-07T15:36:51;29.00;91.30
10384;DHT22;5238;43.508;4.980;2023-05-07T15:39:18;28.90;91.30
10384;DHT22;5238;43.508;4.980;2023-05-07T15:41:45;28.80;91.30
10384;DHT22;5238;43.508;4.980;2023-05-07T15:44:15;28.70;91.30
10384;DHT22;5238;43.508;4.980;2023-05-07T15:46:44;28.60;91.30
10384;DHT22;5238;43.508;4.980;2023-05-07T15:49:11;28.60;91.30
10384;DHT22;5238;43.508;4.980;2023-05-07T15:51:38;28.50;91.30
10384;DHT22;5238;43.508;4.980;2023-05-07T15:54:07;28.40;91.30
10384;DHT22;5238;43.508;4.980;2023-05-07T15:56:34;28.20;91.30
10384;DHT22;5238;43.508;4.980;2023-05-07T15:59:01;28.10;91.30
10384;DHT22;5238;43.508;4.980;2023-05-07T16:01:28;27.90;91.30
10384;DHT22;5238;43.508;4.980;2023-05-07T16:03:55;27.70;91.30
10384;DHT22;5238;43.508;4.980;2023-05-07T16:06:22;27.50;91.30
10384;DHT22;5238;43.508;4.980;2023-05-07T16:08:49;27.40;91.30
10384;DHT22;5238;43.508;4.980;2023-05-07T16:11:18;27.30;91.30
10384;DHT22;5238;43.508;4.980;2023-05-07T16:13:45;27.20;91.30
10384;DHT22;5238;43.508;4.980;2023-05-07T16:16:13;27.10;91.30
10384;DHT22;5238;43.508;4.980;2023-05-07T16:18:40;27.00;91.30
10384;DHT22;5238;43.508;4.980;2023-05-07T16:21:21;26.90;91.30
10384;DHT22;5238;43.508;4.980;2023-05-07T16:23:50;26.80;91.30
10384;DHT22;5238;43.508;4.980;2023-05-07T16:26:23;26.80;91.30
10384;DHT22;5238;43.508;4.980;2023-05-07T16:28:57;26.70;91.30
10384;DHT22;5238;43.508;4.980;2023-05-07T16:31:25;26.60;91.30
10384;DHT22;5238;43.508;4.980;2023-05-07T16:34:07;26.60;91.30
10384;DHT22;5238;43.508;4.980;2023-05-07T16:36:35;26.50;91.30
10384;DHT22;5238;43.508;4.980;2023-05-07T16:39:12;26.40;91.30